createdAt,value
2019-03-22T00:01:45.692Z,72.77
2019-03-22T00:04:18.856Z,74.10
2019-03-22T00:06:52.279Z,73.10
2019-03-22T00:09:26.159Z,75.00
2019-03-22T00:11:59.259Z,73.10
2019-03-22T00:14:32.835Z,75.25
2019-03-22T00:17:05.621Z,77.57
2019-03-22T00:19:39.648Z,78.13
2019-03-22T00:22:12.357Z,79.00
2019-03-22T00:24:45.309Z,79.05
2019-03-22T00:27:18.910Z,80.32
2019-03-22T00:29:53.515Z,79.50
2019-03-22T00:32:26.209Z,79.40
2019-03-22T00:34:59.255Z,81.13
2019-03-22T00:37:31.908Z,82.82
2019-03-22T00:40:05.586Z,83.17
2019-03-22T00:42:38.502Z,83.80
2019-03-22T00:45:12.370Z,78.12
2019-03-22T00:47:47.751Z,79.67
2019-03-22T00:50:20.408Z,80.70
2019-03-22T00:52:52.800Z,83.03
2019-03-22T00:55:25.037Z,84.33
2019-03-22T00:57:57.994Z,84.93
2019-03-22T01:00:40.800Z,84.20
2019-03-22T01:03:14.824Z,82.80
2019-03-22T01:05:47.023Z,81.87
2019-03-22T01:08:20.659Z,82.20
2019-03-22T01:10:52.887Z,80.73
2019-03-22T01:13:25.152Z,78.73
2019-03-22T01:15:58.512Z,79.40
2019-03-22T01:18:31.188Z,81.10
2019-03-22T01:21:03.998Z,77.05
2019-03-22T01:23:37.034Z,79.10
2019-03-22T01:26:09.620Z,79.60
2019-03-22T01:28:42.182Z,81.23
2019-03-22T01:31:14.500Z,82.87
2019-03-22T01:33:47.669Z,79.87
2019-03-22T01:36:21.193Z,80.35
2019-03-22T01:38:54.035Z,79.90
2019-03-22T01:41:27.087Z,82.60
2019-03-22T01:43:59.431Z,81.97
2019-03-22T01:46:32.138Z,81.40
2019-03-22T01:49:04.743Z,82.03
2019-03-22T01:51:37.305Z,82.83
2019-03-22T01:54:09.695Z,81.33
2019-03-22T01:56:41.971Z,85.13
2019-03-22T01:59:14.569Z,80.90
2019-03-22T02:01:47.028Z,79.60
2019-03-22T02:04:21.470Z,79.93
2019-03-22T02:06:53.697Z,80.87
2019-03-22T02:09:26.103Z,80.77
2019-03-22T02:11:58.354Z,79.27
2019-03-22T02:14:31.724Z,74.47
2019-03-22T02:17:04.193Z,77.03
2019-03-22T02:19:36.641Z,77.17
2019-03-22T02:22:09.066Z,75.50
2019-03-22T02:24:41.347Z,75.60
2019-03-22T02:27:14.954Z,76.67
2019-03-22T02:29:47.391Z,76.40
2019-03-22T02:32:19.838Z,77.92
2019-03-22T02:34:52.438Z,78.87
2019-03-22T02:37:26.484Z,74.13
2019-03-22T02:39:58.963Z,71.73
2019-03-22T02:42:31.361Z,76.15
2019-03-22T02:45:04.033Z,73.27
2019-03-22T02:47:36.961Z,72.20
2019-03-22T02:50:17.989Z,71.30
2019-03-22T02:52:45.531Z,72.10
2019-03-22T02:55:18.237Z,72.47
2019-03-22T02:57:50.957Z,71.77
2019-03-22T03:00:23.570Z,71.30
2019-03-22T03:02:55.809Z,70.17
2019-03-22T03:05:28.123Z,70.23
2019-03-22T03:08:00.288Z,69.43
2019-03-22T03:10:34.540Z,70.73
2019-03-22T03:13:07.114Z,66.07
2019-03-22T03:15:39.301Z,65.17
2019-03-22T03:18:12.126Z,61.65
2019-03-22T03:20:44.674Z,65.73
2019-03-22T03:23:17.207Z,68.22
2019-03-22T03:25:49.616Z,69.47
2019-03-22T03:28:36.028Z,68.03
2019-03-22T03:30:58.700Z,70.10
2019-03-22T03:33:31.181Z,71.57
2019-03-22T03:36:03.498Z,66.67
2019-03-22T03:38:35.964Z,69.77
2019-03-22T03:41:08.570Z,67.83
2019-03-22T03:43:40.699Z,72.27
2019-03-22T03:46:13.017Z,70.30
2019-03-22T03:48:45.842Z,71.27
2019-03-22T03:51:18.038Z,73.47
2019-03-22T03:53:50.506Z,74.00
2019-03-22T03:56:23.043Z,74.47
2019-03-22T03:58:57.159Z,74.57
2019-03-22T04:01:29.592Z,73.47
2019-03-22T04:04:01.747Z,71.40
2019-03-22T04:06:34.059Z,61.57
2019-03-22T04:09:09.027Z,63.65
2019-03-22T04:11:41.599Z,62.17
2019-03-22T04:14:13.801Z,58.65
2019-03-22T04:16:45.994Z,57.23
2019-03-22T04:19:18.313Z,57.75
2019-03-22T04:21:50.835Z,58.70
2019-03-22T04:24:23.554Z,57.35
2019-03-22T04:26:56.122Z,54.47
2019-03-22T04:29:28.390Z,56.67
2019-03-22T04:32:00.744Z,51.37
2019-03-22T04:34:33.126Z,52.07
2019-03-22T04:37:05.436Z,49.07
2019-03-22T04:39:37.863Z,49.60
2019-03-22T04:42:10.596Z,48.50
2019-03-22T04:44:42.874Z,50.70
2019-03-22T04:47:18.629Z,51.90
2019-03-22T04:49:52.469Z,51.63
2019-03-22T04:52:30.610Z,53.13
2019-03-22T04:55:03.932Z,54.17
2019-03-22T04:57:38.135Z,55.53
2019-03-22T05:00:10.876Z,54.90
2019-03-22T05:02:43.189Z,55.67
2019-03-22T05:05:15.754Z,56.23
2019-03-22T05:07:48.550Z,57.27
2019-03-22T05:10:22.033Z,56.27
2019-03-22T05:12:56.603Z,57.33
2019-03-22T05:15:30.900Z,56.40
2019-03-22T05:18:06.450Z,58.67
2019-03-22T05:20:40.837Z,59.25
2019-03-22T05:23:18.069Z,58.77
2019-03-22T05:25:52.409Z,60.80
2019-03-22T05:28:26.395Z,61.23
2019-03-22T05:31:25.547Z,60.47
2019-03-22T05:33:58.332Z,60.13
2019-03-22T05:36:31.695Z,60.60
2019-03-22T05:39:05.416Z,62.17
2019-03-22T05:41:39.131Z,60.13
2019-03-22T05:44:11.548Z,63.35
2019-03-22T05:46:44.671Z,61.17
2019-03-22T05:49:18.198Z,62.23
2019-03-22T05:51:50.646Z,64.35
2019-03-22T05:54:22.781Z,64.63
2019-03-22T05:56:56.951Z,65.03
2019-03-22T05:59:29.147Z,62.67
2019-03-22T06:02:01.812Z,63.53
2019-03-22T06:04:34.362Z,64.75
2019-03-22T06:07:06.684Z,65.07
2019-03-22T06:09:43.860Z,63.93
2019-03-22T06:12:16.132Z,63.87
2019-03-22T06:14:48.672Z,65.17
2019-03-22T06:17:21.122Z,65.40
2019-03-22T06:19:53.433Z,65.55
2019-03-22T06:22:25.752Z,66.13
2019-03-22T06:24:58.416Z,64.93
2019-03-22T06:27:30.914Z,66.60
2019-03-22T06:30:03.270Z,65.43
2019-03-22T06:32:35.689Z,65.57
2019-03-22T06:35:09.551Z,64.10
2019-03-22T06:37:42.344Z,62.73
2019-03-22T06:40:14.960Z,63.33
2019-03-22T06:42:47.794Z,63.47
2019-03-22T06:45:21.081Z,59.60
2019-03-22T06:47:53.394Z,61.48
2019-03-22T06:50:25.778Z,59.23
2019-03-22T06:52:57.923Z,58.53
2019-03-22T06:55:30.254Z,57.60
2019-03-22T06:58:04.378Z,58.23
2019-03-22T07:00:36.816Z,58.30
2019-03-22T07:03:09.204Z,60.13
2019-03-22T07:05:41.560Z,58.63
2019-03-22T07:08:15.060Z,60.10
2019-03-22T07:10:47.423Z,59.63
2019-03-22T07:13:19.666Z,59.67
2019-03-22T07:15:52.096Z,62.10
2019-03-22T07:18:24.434Z,59.93
2019-03-22T07:20:57.305Z,59.90
2019-03-22T07:23:29.423Z,59.80
2019-03-22T07:26:01.732Z,57.70
2019-03-22T07:28:33.967Z,59.47
2019-03-22T07:31:07.112Z,60.05
2019-03-22T07:33:40.532Z,56.50
2019-03-22T07:36:12.938Z,58.80
2019-03-22T07:38:45.459Z,62.07
2019-03-22T07:41:18.751Z,61.92
2019-03-22T07:43:51.276Z,62.37
2019-03-22T07:46:23.593Z,59.33
2019-03-22T07:48:55.998Z,64.47
2019-03-22T07:51:28.259Z,64.23
2019-03-22T07:54:00.481Z,63.60
2019-03-22T07:56:32.675Z,63.10
2019-03-22T07:59:04.813Z,59.33
2019-03-22T08:01:37.067Z,61.20
2019-03-22T08:04:09.546Z,58.50
2019-03-22T08:06:41.722Z,53.27
2019-03-22T08:09:13.895Z,54.50
2019-03-22T08:11:46.353Z,54.70
2019-03-22T08:14:18.613Z,55.80
2019-03-22T08:16:50.792Z,56.53
2019-03-22T08:19:23.671Z,55.25
2019-03-22T08:21:55.897Z,54.73
2019-03-22T08:24:28.099Z,55.00
2019-03-22T08:27:00.346Z,57.17
2019-03-22T08:29:33.060Z,52.40
2019-03-22T08:32:07.008Z,54.30
2019-03-22T08:34:39.352Z,55.27
2019-03-22T08:37:12.579Z,53.05
2019-03-22T08:39:46.319Z,55.70
2019-03-22T08:42:18.856Z,53.30
2019-03-22T08:44:51.123Z,54.87
2019-03-22T08:47:33.714Z,53.33
2019-03-22T08:50:00.446Z,53.33
2019-03-22T08:52:32.775Z,51.00
2019-03-22T08:55:05.857Z,53.57
2019-03-22T08:57:38.017Z,47.60
2019-03-22T09:00:11.060Z,48.13
2019-03-22T09:02:43.485Z,47.45
2019-03-22T09:05:16.115Z,47.23
2019-03-22T09:07:48.508Z,37.20
2019-03-22T09:10:20.974Z,38.40
2019-03-22T09:12:54.203Z,35.57
2019-03-22T09:15:26.456Z,32.43
2019-03-22T09:18:00.361Z,31.63
2019-03-22T09:20:32.673Z,33.57
2019-03-22T09:23:05.376Z,31.73
2019-03-22T09:25:38.168Z,34.10
2019-03-22T09:28:10.761Z,29.53
2019-03-22T09:30:43.316Z,30.63
2019-03-22T09:33:17.321Z,27.25
2019-03-22T09:35:49.541Z,30.83
2019-03-22T09:38:21.788Z,28.80
2019-03-22T09:40:54.766Z,28.63
2019-03-22T09:43:27.026Z,30.93
2019-03-22T09:46:05.852Z,30.27
2019-03-22T09:48:38.517Z,30.23
2019-03-22T09:51:11.315Z,27.20
2019-03-22T09:53:43.752Z,27.83
2019-03-22T09:56:16.212Z,27.27
2019-03-22T09:58:48.502Z,27.97
2019-03-22T10:01:23.957Z,27.80
2019-03-22T10:03:54.713Z,28.37
2019-03-22T10:06:27.012Z,27.47
2019-03-22T10:09:05.090Z,25.07
2019-03-22T10:11:36.703Z,24.73
2019-03-22T10:14:09.106Z,26.00
2019-03-22T10:16:41.901Z,25.47
2019-03-22T10:19:14.494Z,26.97
2019-03-22T10:21:47.710Z,65.63
2019-03-22T10:24:20.042Z,26.48
2019-03-22T10:26:52.362Z,26.00
2019-03-22T10:29:24.893Z,28.00
2019-03-22T10:31:57.107Z,26.20
2019-03-22T10:34:29.375Z,26.97
2019-03-22T10:37:01.909Z,29.43
2019-03-22T10:39:34.487Z,29.23
2019-03-22T10:42:06.802Z,28.47
2019-03-22T10:44:39.514Z,27.17
2019-03-22T10:47:13.308Z,26.63
2019-03-22T10:49:45.984Z,26.20
2019-03-22T10:52:18.695Z,26.48
2019-03-22T10:54:50.920Z,26.70
2019-03-22T10:57:24.387Z,23.87
2019-03-22T10:59:57.562Z,25.23
2019-03-22T11:02:29.953Z,23.93
2019-03-22T11:05:02.519Z,25.30
2019-03-22T11:07:35.472Z,23.70
2019-03-22T11:10:11.169Z,23.93
2019-03-22T11:12:44.581Z,25.73
2019-03-22T11:15:17.372Z,25.23
2019-03-22T11:17:50.518Z,24.30
2019-03-22T11:20:24.462Z,24.92
2019-03-22T11:22:56.695Z,25.37
2019-03-22T11:25:29.717Z,28.43
2019-03-22T11:28:02.014Z,24.77
2019-03-22T11:30:34.865Z,23.67
2019-03-22T11:33:07.455Z,24.77
2019-03-22T11:35:40.177Z,20.60
2019-03-22T11:38:12.729Z,20.90
2019-03-22T11:40:46.995Z,21.47
2019-03-22T11:43:19.579Z,20.87
2019-03-22T11:45:52.126Z,20.27
2019-03-22T11:48:24.583Z,22.00
2019-03-22T11:50:57.490Z,19.80
2019-03-22T11:53:29.838Z,18.70
2019-03-22T11:56:02.476Z,19.33
2019-03-22T11:58:37.135Z,19.10
2019-03-22T12:01:19.146Z,26.03
2019-03-22T12:03:45.076Z,30.37
2019-03-22T12:06:18.285Z,31.52
2019-03-22T12:08:51.714Z,30.70
2019-03-22T12:11:24.171Z,32.63
2019-03-22T12:13:57.383Z,33.03
2019-03-22T12:16:29.793Z,31.70
2019-03-22T12:19:01.963Z,33.27
2019-03-22T12:21:35.968Z,32.03
2019-03-22T12:24:08.605Z,31.47
2019-03-22T12:26:41.007Z,30.67
2019-03-22T12:29:13.455Z,29.55
2019-03-22T12:31:48.495Z,30.27
2019-03-22T12:34:21.993Z,29.48
2019-03-22T12:36:55.982Z,32.57
2019-03-22T12:39:29.323Z,34.07
2019-03-22T12:42:02.365Z,34.65
2019-03-22T12:44:34.920Z,32.77
2019-03-22T12:47:07.755Z,32.00
2019-03-22T12:49:40.347Z,31.53
2019-03-22T12:52:15.302Z,31.53
2019-03-22T12:54:47.961Z,32.13
2019-03-22T12:57:20.616Z,29.90
2019-03-22T12:59:53.375Z,26.63
2019-03-22T13:02:26.120Z,25.53
2019-03-22T13:05:00.058Z,26.83
2019-03-22T13:07:33.047Z,26.50
2019-03-22T13:10:07.955Z,28.23
2019-03-22T13:12:40.787Z,27.20
2019-03-22T13:15:13.843Z,27.57
2019-03-22T13:17:47.135Z,28.00
2019-03-22T13:20:19.664Z,27.98
2019-03-22T13:22:53.480Z,28.13
2019-03-22T13:25:26.248Z,27.17
2019-03-22T13:27:58.579Z,27.77
2019-03-22T13:30:36.311Z,28.33
2019-03-22T13:33:09.764Z,29.07
2019-03-22T13:35:43.621Z,29.73
2019-03-22T13:38:16.096Z,31.00
2019-03-22T13:40:48.408Z,30.23
2019-03-22T13:43:20.856Z,33.15
2019-03-22T13:45:54.081Z,32.13
2019-03-22T13:48:26.399Z,31.57
2019-03-22T13:50:58.680Z,33.20
2019-03-22T13:53:30.896Z,34.40
2019-03-22T13:56:03.217Z,25.93
2019-03-22T13:58:36.442Z,26.17
2019-03-22T14:01:08.974Z,38.20
2019-03-22T14:03:42.309Z,40.70
2019-03-22T14:06:14.661Z,41.28
2019-03-22T14:08:47.277Z,42.83
2019-03-22T14:11:19.701Z,42.23
2019-03-22T14:13:53.500Z,42.03
2019-03-22T14:16:26.122Z,42.97
2019-03-22T14:19:00.071Z,41.80
2019-03-22T14:21:33.632Z,42.60
2019-03-22T14:24:07.498Z,43.08
2019-03-22T14:26:39.857Z,40.90
2019-03-22T14:29:12.234Z,41.48
2019-03-22T14:31:44.719Z,44.63
2019-03-22T14:34:17.316Z,41.95
2019-03-22T14:36:50.501Z,44.07
2019-03-22T14:39:23.608Z,38.98
2019-03-22T14:41:56.033Z,38.57
2019-03-22T14:44:28.432Z,35.93
2019-03-22T14:47:00.800Z,36.63
2019-03-22T14:49:39.013Z,32.70
2019-03-22T14:52:12.394Z,32.23
2019-03-22T14:54:44.850Z,27.83
2019-03-22T14:57:17.547Z,26.50
2019-03-22T14:59:58.855Z,27.40
2019-03-22T15:02:25.702Z,26.17
2019-03-22T15:04:57.982Z,28.97
2019-03-22T15:07:30.289Z,26.87
2019-03-22T15:10:02.576Z,27.80
2019-03-22T15:12:34.740Z,27.93
2019-03-22T15:15:29.970Z,28.90
2019-03-22T15:18:11.807Z,29.60
2019-03-22T15:20:58.048Z,29.70
2019-03-22T15:23:50.006Z,31.00
2019-03-22T15:26:59.805Z,31.12
2019-03-22T15:29:59.659Z,33.30
2019-03-22T15:33:08.884Z,31.83
2019-03-22T15:36:06.470Z,33.00
2019-03-22T15:38:59.829Z,31.63
2019-03-22T15:41:33.108Z,34.13
2019-03-22T15:44:05.411Z,34.33
2019-03-22T15:46:38.024Z,28.73
2019-03-22T15:49:10.524Z,28.97
2019-03-22T15:51:43.055Z,27.17
2019-03-22T15:54:15.928Z,23.83
2019-03-22T15:56:48.991Z,17.50
2019-03-22T15:59:21.737Z,17.33
2019-03-22T16:01:53.919Z,18.17
2019-03-22T16:04:26.284Z,20.07
2019-03-22T16:06:58.474Z,20.40
2019-03-22T16:09:31.137Z,20.63
2019-03-22T16:12:03.518Z,19.87
2019-03-22T16:14:35.704Z,17.30
2019-03-22T16:17:08.027Z,19.33
2019-03-22T16:19:40.412Z,18.67
2019-03-22T16:22:12.953Z,18.83
2019-03-22T16:24:45.072Z,20.07
2019-03-22T16:27:17.329Z,19.57
2019-03-22T16:29:49.649Z,20.00
2019-03-22T16:32:21.847Z,20.50
2019-03-22T16:34:53.998Z,28.53
2019-03-22T16:37:26.166Z,35.30
2019-03-22T16:39:58.290Z,24.20
2019-03-22T16:42:30.488Z,26.10
2019-03-22T16:45:03.748Z,29.13
2019-03-22T16:47:36.425Z,24.67
2019-03-22T16:50:23.459Z,38.97
2019-03-22T16:52:55.665Z,35.60
2019-03-22T16:55:28.225Z,28.10
2019-03-22T16:58:00.605Z,29.40
2019-03-22T17:00:33.007Z,34.13
2019-03-22T17:03:07.927Z,41.20
2019-03-22T17:05:40.217Z,41.10
2019-03-22T17:08:13.938Z,44.43
2019-03-22T17:10:46.199Z,51.37
2019-03-22T17:13:18.542Z,51.23
2019-03-22T17:15:50.799Z,45.57
2019-03-22T17:18:23.579Z,45.98
2019-03-22T17:20:56.028Z,48.10
2019-03-22T17:23:28.408Z,51.47
2019-03-22T17:26:01.868Z,49.77
2019-03-22T17:28:34.326Z,52.90
2019-03-22T17:31:06.693Z,48.40
2019-03-22T17:33:38.909Z,52.30
2019-03-22T17:36:11.130Z,56.83
2019-03-22T17:38:43.651Z,53.58
2019-03-22T17:41:16.075Z,61.17
2019-03-22T17:43:48.280Z,48.53
2019-03-22T17:46:20.703Z,49.57
2019-03-22T17:48:52.906Z,53.27
2019-03-22T17:51:25.454Z,58.77
2019-03-22T17:53:57.781Z,64.30
2019-03-22T17:56:30.359Z,57.67
2019-03-22T17:59:02.877Z,51.67
2019-03-22T18:01:36.226Z,49.27
2019-03-22T18:04:08.792Z,50.63
2019-03-22T18:06:40.971Z,47.33
2019-03-22T18:09:13.198Z,46.97
2019-03-22T18:11:45.414Z,49.27
2019-03-22T18:14:17.750Z,48.25
2019-03-22T18:16:50.031Z,50.43
2019-03-22T18:19:24.562Z,48.17
2019-03-22T18:21:56.726Z,52.13
2019-03-22T18:24:29.128Z,50.17
2019-03-22T18:27:01.611Z,50.43
2019-03-22T18:29:33.850Z,56.40
2019-03-22T18:32:06.753Z,56.77
2019-03-22T18:34:38.948Z,51.63
2019-03-22T18:37:11.249Z,54.42
2019-03-22T18:39:43.464Z,53.77
2019-03-22T18:42:16.764Z,53.58
2019-03-22T18:44:49.113Z,53.10
2019-03-22T18:47:21.487Z,53.53
2019-03-22T18:49:53.766Z,53.60
2019-03-22T18:52:25.915Z,52.27
2019-03-22T18:54:58.280Z,52.73
2019-03-22T18:57:30.637Z,56.47
2019-03-22T19:00:05.421Z,56.13
2019-03-22T19:02:37.768Z,53.33
2019-03-22T19:05:10.323Z,54.20
2019-03-22T19:07:42.710Z,58.00
2019-03-22T19:10:17.758Z,58.80
2019-03-22T19:12:50.031Z,59.17
2019-03-22T19:15:22.334Z,61.30
2019-03-22T19:17:54.923Z,57.10
2019-03-22T19:20:27.366Z,60.38
2019-03-22T19:22:59.498Z,56.90
2019-03-22T19:25:31.841Z,58.27
2019-03-22T19:28:03.950Z,55.67
2019-03-22T19:30:36.546Z,59.53
2019-03-22T19:33:09.928Z,66.50
2019-03-22T19:35:42.274Z,64.83
2019-03-22T19:38:16.763Z,69.55
2019-03-22T19:40:49.143Z,74.50
2019-03-22T19:43:21.513Z,59.27
2019-03-22T19:45:53.691Z,77.03
2019-03-22T19:48:25.888Z,75.73
2019-03-22T19:50:58.192Z,84.07
2019-03-22T19:53:30.549Z,92.40
2019-03-22T19:56:03.707Z,85.20
2019-03-22T19:58:37.910Z,89.23
2019-03-22T20:01:10.200Z,86.63
2019-03-22T20:03:42.936Z,86.63
2019-03-22T20:06:15.815Z,108.40
2019-03-22T20:08:48.444Z,82.77
2019-03-22T20:11:21.024Z,77.72
2019-03-22T20:13:53.514Z,90.00
2019-03-22T20:16:25.956Z,95.10
2019-03-22T20:18:58.643Z,72.37
2019-03-22T20:21:31.246Z,72.23
2019-03-22T20:24:04.139Z,83.53
2019-03-22T20:26:36.806Z,82.60
2019-03-22T20:29:09.882Z,92.20
2019-03-22T20:31:42.113Z,83.63
2019-03-22T20:34:14.521Z,81.65
2019-03-22T20:36:47.193Z,83.20
2019-03-22T20:39:19.953Z,88.80
2019-03-22T20:41:52.453Z,95.33
2019-03-22T20:44:33.540Z,95.73
2019-03-22T20:46:58.975Z,94.73
2019-03-22T20:49:31.708Z,93.63
2019-03-22T20:52:04.615Z,89.80
2019-03-22T20:54:37.889Z,88.07
2019-03-22T20:57:11.127Z,76.27
2019-03-22T20:59:43.371Z,84.30
2019-03-22T21:02:16.044Z,84.50
2019-03-22T21:04:49.254Z,87.30
2019-03-22T21:07:21.818Z,75.97
2019-03-22T21:09:54.251Z,80.73
2019-03-22T21:12:26.803Z,66.77
2019-03-22T21:14:59.261Z,71.07
2019-03-22T21:17:31.487Z,72.00
2019-03-22T21:20:03.911Z,73.13
2019-03-22T21:22:36.434Z,74.57
2019-03-22T21:25:09.978Z,77.43
2019-03-22T21:27:42.292Z,80.42
2019-03-22T21:30:15.056Z,80.13
2019-03-22T21:32:47.331Z,86.70
2019-03-22T21:35:22.893Z,83.67
2019-03-22T21:37:54.142Z,82.87
2019-03-22T21:40:26.755Z,78.53
2019-03-22T21:42:59.101Z,81.07
2019-03-22T21:45:31.785Z,74.37
2019-03-22T21:48:04.180Z,72.50
2019-03-22T21:50:36.904Z,69.20
2019-03-22T21:53:11.484Z,63.53
2019-03-22T21:55:43.895Z,67.67
2019-03-22T21:58:16.318Z,71.97
2019-03-22T22:00:49.900Z,79.30
2019-03-22T22:03:22.554Z,86.60
2019-03-22T22:05:55.014Z,79.27
2019-03-22T22:08:27.336Z,79.47
2019-03-22T22:11:00.307Z,79.67
2019-03-22T22:13:33.786Z,78.50
2019-03-22T22:16:07.381Z,74.22
2019-03-22T22:18:39.880Z,78.52
2019-03-22T22:21:13.069Z,74.93
2019-03-22T22:23:45.828Z,67.93
2019-03-22T22:26:18.430Z,68.60
2019-03-22T22:28:51.350Z,64.60
2019-03-22T22:31:23.799Z,69.63
2019-03-22T22:33:56.635Z,63.47
2019-03-22T22:36:28.985Z,57.30
2019-03-22T22:39:03.221Z,62.37
2019-03-22T22:41:37.455Z,64.13
2019-03-22T22:44:10.226Z,66.67
2019-03-22T22:46:43.005Z,70.83
2019-03-22T22:49:15.447Z,75.28
2019-03-22T22:51:48.403Z,75.17
2019-03-22T22:54:20.729Z,72.93
2019-03-22T22:56:53.040Z,73.73
2019-03-22T22:59:25.548Z,69.30
2019-03-22T23:01:58.036Z,73.53
2019-03-22T23:04:32.230Z,76.93
2019-03-22T23:07:04.692Z,77.30
2019-03-22T23:09:37.262Z,65.53
2019-03-22T23:12:09.924Z,66.07
2019-03-22T23:14:42.311Z,66.70
2019-03-22T23:17:14.622Z,67.53
2019-03-22T23:19:51.050Z,65.47
2019-03-22T23:22:23.678Z,65.03
2019-03-22T23:24:56.088Z,66.07
2019-03-22T23:27:28.505Z,65.80
2019-03-22T23:30:01.524Z,69.43
2019-03-22T23:32:33.907Z,71.90
2019-03-22T23:35:07.389Z,70.47
2019-03-22T23:37:40.232Z,72.57
2019-03-22T23:40:12.886Z,78.10
2019-03-22T23:42:45.032Z,70.33
2019-03-22T23:45:17.358Z,69.10
2019-03-22T23:47:49.784Z,68.28
2019-03-22T23:50:22.175Z,62.90
2019-03-22T23:52:54.601Z,62.77
2019-03-22T23:55:28.775Z,62.00
2019-03-22T23:58:01.558Z,61.30
